< < Back
Terminal Aerodrome Forecast


Current Version              Previous Versions:   1  2  3  4  5  6  7  8  9  

Terminal Aerodrome Forecast

224
FTUS42 KGSP 251734
TAFAND
TAF
KAND 251734Z 2518/2618 16003KT P6SM FEW050
     FM260500 09003KT P6SM BKN050
     FM261100 09003KT P6SM SCT008 BKN020
     FM261500 16003KT P6SM BKN035=



Latest METAR

713
SAUS70 KWBC 252000 RRA
MTRAND
METAR KAND 251956Z AUTO 17008KT 10SM SCT085 34/16 A3004 RMK AO2 SLP160
T03390156


USA.gov is the U.S. government's official web portal to all federal, state and local government web resources and services.